Kashi, China
Current Conditions -  °F | °C
As of 8:00 PM on Friday 19 Dec 2014 (Local Time) from ZWSH Reporting Station
Smoke Smoke  
Wind Chill: 23°   Ceiling: Unl
Heat Index: 23°   Visibility: 2.5mi
Dew Point: 12°   Wind: 2mph
Humidity: 63%   Direction: NA
Pressure: 30.24"   Gusts: NA
Location:  39.48°N, 75.97°E
Report Text: ZWSH 191200Z VRB01MPS 4000 FU SCT040 M05/M11 Q1024 NOSIG
Loading
Personal Weather Stations






























Interactive Weather Map New forecast layout! Learn more

10-Day Weather Forecast

Advertisements
Track Severe Weather on mobile